Terminal Aerodrome Forecast
Issued by NWS Memphis, TN

Home | Current Version | Previous Version | Text Only | Print | Product List | Glossary On
Versions: 1 2 3 4 5 6 7 8 9 10 11 12 13 14 15 16 17 18 19 20
953
FTUS44 KMEG 060524
TAFMKL
TAF
KMKL 060524Z 0606/0706 05004KT 4SM -RA BR OVC004
     FM060700 05004KT 4SM -RA BR VCTS OVC004CB
      TEMPO 0607/0611 2SM +RA OVC003
     FM061100 34007KT 4SM -RA OVC004
     FM061300 32010KT P6SM OVC006
      TEMPO 0613/0615 5SM -SHRA BR
     FM061800 32010KT P6SM OVC012
     FM062100 32008KT P6SM OVC015=

USA.gov is the U.S. government's official web portal to all federal, state and local government web resources and services.